This is the latest recevied weather packets stored in our database for station/object K0RGI. If no packets are shown the sender has not sent any weather packets the latest 10 day(s).
| Time | Temp. | Humidity | Pressure | Rain* | Wind** | Luminosity | Snow |
|---|---|---|---|---|---|---|---|
| 1777047520 | 25° C | 59% | 1015.8 hPa | 0 mm | - | 231 W/m² | - |
| 1777046918 | 23.89° C | 60% | 1015.8 hPa | 0 mm | - | 158 W/m² | - |
| 1777046316 | 24.44° C | 58% | 1015.8 hPa | 0 mm | - | 195 W/m² | - |
| 1777045714 | 23.89° C | 57% | 1016 hPa | 0 mm | - | 206 W/m² | - |
| 1777045111 | 24.44° C | 56% | 1016 hPa | 0 mm | - | 231 W/m² | - |
| 1777044509 | 23.89° C | 60% | 1016.1 hPa | 0 mm | - | 616 W/m² | - |
| 1777043907 | 23.33° C | 61% | 1016.2 hPa | 0 mm | - | 134 W/m² | - |
| 1777043306 | 23.33° C | 61% | 1016 hPa | 0 mm | - | 413 W/m² | - |
| 1777042704 | 22.78° C | 59% | 1016.2 hPa | 0 mm | - | 115 W/m² | - |
| 1777042101 | 23.33° C | 58% | 1016.2 hPa | 0 mm | - | 198 W/m² | - |
| 1777041500 | 22.78° C | 65% | 1016.3 hPa | 0 mm | - | 575 W/m² | - |
| 1777040899 | 22.78° C | 59% | 1016.3 hPa | 0 mm | - | 552 W/m² | - |
| 1777040295 | 22.22° C | 64% | 1016.1 hPa | 0 mm | - | 536 W/m² | - |
| 1777039692 | 21.67° C | 64% | 1016.1 hPa | 0 mm | - | 528 W/m² | - |
| 1777039088 | 21.67° C | 64% | 1016.4 hPa | 0 mm | - | 508 W/m² | - |
| 1777038485 | 20.56° C | 66% | 1016.2 hPa | 0 mm | - | 468 W/m² | - |
| 1777037881 | 20.56° C | 67% | 1016.4 hPa | 0 mm | - | 414 W/m² | - |
| 1777037279 | 20° C | 67% | 1016.3 hPa | 0 mm | - | 337 W/m² | - |
| 1777036679 | 20.56° C | 68% | 1016.3 hPa | 0 mm | - | 337 W/m² | - |
| 1777036074 | 18.89° C | 73% | 1016.2 hPa | 0 mm | - | 301 W/m² | - |
| 1777035472 | 18.89° C | 75% | 1016.2 hPa | 0 mm | - | 266 W/m² | - |
| 1777034868 | 18.33° C | 76% | 1016.4 hPa | 0 mm | - | 223 W/m² | - |
| 1777034268 | 17.78° C | 77% | 1016.2 hPa | 0 mm | - | 186 W/m² | - |
| 1777033666 | 17.22° C | 77% | 1016.2 hPa | 0 mm | - | 141 W/m² | - |
| 1777033060 | 15.56° C | 83% | 1016.6 hPa | 0 mm | - | 120 W/m² | - |
* Rain latest hour (hover to see other rain measurements)
** Current wind speed in m/s (hover to see current wind gust speed)